sensor_id;sensor_type;location;lat;lon;timestamp;pressure;altitude;pressure_sealevel;temperature;humidity
18900;BME280;9582;52.018;6.306;2023-04-27T00:00:36;101585.41;;;2.39;100.00
18900;BME280;9582;52.018;6.306;2023-04-27T00:03:02;101589.69;;;2.32;100.00
18900;BME280;9582;52.018;6.306;2023-04-27T00:05:30;101594.84;;;2.27;100.00
18900;BME280;9582;52.018;6.306;2023-04-27T00:07:58;101598.28;;;2.26;100.00
18900;BME280;9582;52.018;6.306;2023-04-27T00:10:25;101599.16;;;2.25;100.00
18900;BME280;9582;52.018;6.306;2023-04-27T00:12:51;101606.03;;;2.29;100.00
18900;BME280;9582;52.018;6.306;2023-04-27T00:15:18;101612.06;;;2.25;100.00
18900;BME280;9582;52.018;6.306;2023-04-27T00:17:46;101612.06;;;2.28;100.00
18900;BME280;9582;52.018;6.306;2023-04-27T00:20:12;101627.53;;;2.31;100.00
18900;BME280;9582;52.018;6.306;2023-04-27T00:22:39;101634.44;;;2.31;100.00
18900;BME280;9582;52.018;6.306;2023-04-27T00:25:06;101632.72;;;2.28;100.00
18900;BME280;9582;52.018;6.306;2023-04-27T00:27:32;101637.00;;;2.29;100.00
18900;BME280;9582;52.018;6.306;2023-04-27T00:29:59;101643.88;;;2.30;100.00
18900;BME280;9582;52.018;6.306;2023-04-27T00:32:25;101651.63;;;2.30;100.00
18900;BME280;9582;52.018;6.306;2023-04-27T00:34:53;101659.34;;;2.29;100.00
18900;BME280;9582;52.018;6.306;2023-04-27T00:37:20;101659.34;;;2.21;100.00
18900;BME280;9582;52.018;6.306;2023-04-27T00:39:46;101661.06;;;2.16;100.00
18900;BME280;9582;52.018;6.306;2023-04-27T00:42:13;101668.78;;;2.10;100.00
18900;BME280;9582;52.018;6.306;2023-04-27T00:44:43;101673.06;;;2.10;100.00
18900;BME280;9582;52.018;6.306;2023-04-27T00:47:10;101668.75;;;2.07;100.00
18900;BME280;9582;52.018;6.306;2023-04-27T00:49:38;101673.91;;;2.07;100.00
18900;BME280;9582;52.018;6.306;2023-04-27T00:52:06;101679.09;;;2.06;100.00
18900;BME280;9582;52.018;6.306;2023-04-27T00:54:33;101679.09;;;2.06;100.00
18900;BME280;9582;52.018;6.306;2023-04-27T00:56:59;101686.81;;;2.04;100.00
18900;BME280;9582;52.018;6.306;2023-04-27T00:59:27;101690.25;;;2.00;100.00
18900;BME280;9582;52.018;6.306;2023-04-27T01:01:54;101697.94;;;1.91;100.00
18900;BME280;9582;52.018;6.306;2023-04-27T01:04:21;101691.88;;;1.85;100.00
18900;BME280;9582;52.018;6.306;2023-04-27T01:06:48;101694.44;;;1.77;100.00
18900;BME280;9582;52.018;6.306;2023-04-27T01:09:15;101689.22;;;1.72;100.00
18900;BME280;9582;52.018;6.306;2023-04-27T01:11:44;101694.41;;;1.74;100.00
18900;BME280;9582;52.018;6.306;2023-04-27T01:14:10;101701.28;;;1.78;100.00
18900;BME280;9582;52.018;6.306;2023-04-27T01:16:37;101710.75;;;1.74;100.00
18900;BME280;9582;52.018;6.306;2023-04-27T01:19:03;101727.03;;;1.70;100.00
18900;BME280;9582;52.018;6.306;2023-04-27T01:21:30;101730.47;;;1.66;100.00
18900;BME280;9582;52.018;6.306;2023-04-27T01:23:58;101735.59;;;1.65;100.00
18900;BME280;9582;52.018;6.306;2023-04-27T01:26:25;101733.03;;;1.66;100.00
18900;BME280;9582;52.018;6.306;2023-04-27T01:28:51;101755.34;;;1.64;100.00
18900;BME280;9582;52.018;6.306;2023-04-27T01:31:18;101755.34;;;1.64;100.00
18900;BME280;9582;52.018;6.306;2023-04-27T01:33:45;101763.13;;;1.66;100.00
18900;BME280;9582;52.018;6.306;2023-04-27T01:36:12;101758.81;;;1.63;100.00
18900;BME280;9582;52.018;6.306;2023-04-27T01:38:39;101755.31;;;1.57;100.00
18900;BME280;9582;52.018;6.306;2023-04-27T01:41:07;101744.97;;;1.49;100.00
18900;BME280;9582;52.018;6.306;2023-04-27T01:43:34;101756.06;;;1.41;100.00
18900;BME280;9582;52.018;6.306;2023-04-27T01:46:05;101755.13;;;1.31;100.00
18900;BME280;9582;52.018;6.306;2023-04-27T01:48:32;101761.09;;;1.24;100.00
18900;BME280;9582;52.018;6.306;2023-04-27T01:50:59;101762.75;;;1.17;100.00
18900;BME280;9582;52.018;6.306;2023-04-27T01:53:25;101771.25;;;1.10;100.00
18900;BME280;9582;52.018;6.306;2023-04-27T01:55:52;101777.25;;;1.08;100.00
18900;BME280;9582;52.018;6.306;2023-04-27T01:58:20;101785.84;;;1.08;100.00
18900;BME280;9582;52.018;6.306;2023-04-27T02:00:47;101783.25;;;1.08;100.00
18900;BME280;9582;52.018;6.306;2023-04-27T02:03:13;101772.91;;;1.02;100.00
18900;BME280;9582;52.018;6.306;2023-04-27T02:05:40;101781.44;;;0.97;100.00
18900;BME280;9582;52.018;6.306;2023-04-27T02:08:07;101791.69;;;0.94;100.00
18900;BME280;9582;52.018;6.306;2023-04-27T02:10:34;101786.50;;;0.89;100.00
18900;BME280;9582;52.018;6.306;2023-04-27T02:13:00;101788.19;;;0.86;100.00
18900;BME280;9582;52.018;6.306;2023-04-27T02:15:28;101791.59;;;0.85;100.00
18900;BME280;9582;52.018;6.306;2023-04-27T02:17:55;101790.75;;;0.86;100.00
18900;BME280;9582;52.018;6.306;2023-04-27T02:20:22;101803.69;;;0.90;100.00
18900;BME280;9582;52.018;6.306;2023-04-27T02:22:49;101823.44;;;0.90;100.00
18900;BME280;9582;52.018;6.306;2023-04-27T02:25:16;101835.44;;;0.91;100.00
18900;BME280;9582;52.018;6.306;2023-04-27T02:27:42;101827.72;;;0.91;100.00
18900;BME280;9582;52.018;6.306;2023-04-27T02:30:10;101835.44;;;0.89;100.00
18900;BME280;9582;52.018;6.306;2023-04-27T02:32:38;101838.84;;;0.87;100.00
18900;BME280;9582;52.018;6.306;2023-04-27T02:35:06;101850.00;;;0.87;100.00
18900;BME280;9582;52.018;6.306;2023-04-27T02:37:33;101849.94;;;0.81;100.00
18900;BME280;9582;52.018;6.306;2023-04-27T02:39:59;101844.66;;;0.72;100.00
18900;BME280;9582;52.018;6.306;2023-04-27T02:42:26;101853.22;;;0.71;100.00
18900;BME280;9582;52.018;6.306;2023-04-27T02:44:53;101877.31;;;0.73;100.00
18900;BME280;9582;52.018;6.306;2023-04-27T02:47:19;101879.84;;;0.72;100.00
18900;BME280;9582;52.018;6.306;2023-04-27T02:49:47;101890.88;;;0.63;100.00
18900;BME280;9582;52.018;6.306;2023-04-27T02:52:14;101891.53;;;0.47;100.00
18900;BME280;9582;52.018;6.306;2023-04-27T02:54:40;101894.81;;;0.37;100.00
18900;BME280;9582;52.018;6.306;2023-04-27T02:57:07;101902.53;;;0.35;100.00
18900;BME280;9582;52.018;6.306;2023-04-27T02:59:33;101899.94;;;0.34;100.00
18900;BME280;9582;52.018;6.306;2023-04-27T03:02:00;101904.13;;;0.29;100.00
18900;BME280;9582;52.018;6.306;2023-04-27T03:04:27;101902.47;;;0.31;100.00
18900;BME280;9582;52.018;6.306;2023-04-27T03:06:55;101899.91;;;0.31;100.00
18900;BME280;9582;52.018;6.306;2023-04-27T03:09:22;101899.03;;;0.30;100.00
18900;BME280;9582;52.018;6.306;2023-04-27T03:11:49;101904.06;;;0.24;100.00
18900;BME280;9582;52.018;6.306;2023-04-27T03:14:15;101903.16;;;0.19;100.00
18900;BME280;9582;52.018;6.306;2023-04-27T03:16:41;101906.50;;;0.15;100.00
18900;BME280;9582;52.018;6.306;2023-04-27T03:19:08;101911.69;;;0.18;100.00
18900;BME280;9582;52.018;6.306;2023-04-27T03:21:34;101908.31;;;0.21;100.00
18900;BME280;9582;52.018;6.306;2023-04-27T03:24:03;101919.47;;;0.23;100.00
18900;BME280;9582;52.018;6.306;2023-04-27T03:26:30;101916.91;;;0.23;100.00
18900;BME280;9582;52.018;6.306;2023-04-27T03:28:57;101922.91;;;0.23;100.00
18900;BME280;9582;52.018;6.306;2023-04-27T03:31:27;101924.59;;;0.20;100.00
18900;BME280;9582;52.018;6.306;2023-04-27T03:33:53;101936.50;;;0.15;100.00
18900;BME280;9582;52.018;6.306;2023-04-27T03:36:21;101929.66;;;0.14;100.00
18900;BME280;9582;52.018;6.306;2023-04-27T03:38:47;101930.53;;;0.17;100.00
18900;BME280;9582;52.018;6.306;2023-04-27T03:41:15;101935.63;;;0.13;100.00
18900;BME280;9582;52.018;6.306;2023-04-27T03:43:41;101938.09;;;0.07;100.00
18900;BME280;9582;52.018;6.306;2023-04-27T03:46:08;101936.28;;;-0.01;100.00
18900;BME280;9582;52.018;6.306;2023-04-27T03:48:36;101945.59;;;-0.06;100.00
18900;BME280;9582;52.018;6.306;2023-04-27T03:51:02;101953.31;;;-0.06;100.00
18900;BME280;9582;52.018;6.306;2023-04-27T03:53:29;101957.63;;;-0.05;100.00
18900;BME280;9582;52.018;6.306;2023-04-27T03:55:55;101947.38;;;-0.03;100.00
18900;BME280;9582;52.018;6.306;2023-04-27T03:58:23;101953.31;;;-0.06;100.00
18900;BME280;9582;52.018;6.306;2023-04-27T04:01:07;101957.47;;;-0.14;100.00
18900;BME280;9582;52.018;6.306;2023-04-27T04:03:35;101963.41;;;-0.18;100.00
18900;BME280;9582;52.018;6.306;2023-04-27T04:06:05;101971.06;;;-0.21;100.00
18900;BME280;9582;52.018;6.306;2023-04-27T04:08:31;101970.19;;;-0.20;100.00
18900;BME280;9582;52.018;6.306;2023-04-27T04:10:58;101983.97;;;-0.18;100.00
18900;BME280;9582;52.018;6.306;2023-04-27T04:13:27;101981.59;;;-0.06;100.00
18900;BME280;9582;52.018;6.306;2023-04-27T04:16:04;101986.88;;;0.02;100.00
18900;BME280;9582;52.018;6.306;2023-04-27T04:18:31;101996.34;;;0.05;100.00
18900;BME280;9582;52.018;6.306;2023-04-27T04:20:58;101992.84;;;-0.01;100.00
18900;BME280;9582;52.018;6.306;2023-04-27T04:23:25;102000.38;;;-0.10;100.00
18900;BME280;9582;52.018;6.306;2023-04-27T04:25:52;102007.00;;;-0.22;100.00
18900;BME280;9582;52.018;6.306;2023-04-27T04:28:19;102012.91;;;-0.28;100.00
18900;BME280;9582;52.018;6.306;2023-04-27T04:30:48;102017.97;;;-0.31;100.00
18900;BME280;9582;52.018;6.306;2023-04-27T04:33:15;102015.41;;;-0.32;100.00
18900;BME280;9582;52.018;6.306;2023-04-27T04:35:42;102011.00;;;-0.38;100.00
18900;BME280;9582;52.018;6.306;2023-04-27T04:38:09;102021.28;;;-0.38;100.00
18900;BME280;9582;52.018;6.306;2023-04-27T04:40:37;102014.63;;;-0.28;100.00
18900;BME280;9582;52.018;6.306;2023-04-27T04:43:03;102022.63;;;-0.12;100.00
18900;BME280;9582;52.018;6.306;2023-04-27T04:45:30;102029.66;;;-0.02;100.00
18900;BME280;9582;52.018;6.306;2023-04-27T04:47:58;102028.09;;;0.07;100.00
18900;BME280;9582;52.018;6.306;2023-04-27T04:50:26;102032.56;;;0.17;100.00
18900;BME280;9582;52.018;6.306;2023-04-27T04:52:53;102039.59;;;0.27;100.00
18900;BME280;9582;52.018;6.306;2023-04-27T04:55:20;102048.28;;;0.35;100.00
18900;BME280;9582;52.018;6.306;2023-04-27T04:57:46;102050.97;;;0.41;100.00
18900;BME280;9582;52.018;6.306;2023-04-27T05:00:13;102050.19;;;0.46;100.00
18900;BME280;9582;52.018;6.306;2023-04-27T05:02:40;102060.59;;;0.52;100.00
18900;BME280;9582;52.018;6.306;2023-04-27T05:05:08;102056.41;;;0.59;100.00
18900;BME280;9582;52.018;6.306;2023-04-27T05:07:35;102065.91;;;0.63;100.00
18900;BME280;9582;52.018;6.306;2023-04-27T05:10:01;102060.69;;;0.60;100.00
18900;BME280;9582;52.018;6.306;2023-04-27T05:12:28;102074.38;;;0.57;100.00
18900;BME280;9582;52.018;6.306;2023-04-27T05:14:55;102078.88;;;0.69;100.00
18900;BME280;9582;52.018;6.306;2023-04-27T05:17:21;102092.72;;;0.77;100.00
18900;BME280;9582;52.018;6.306;2023-04-27T05:19:48;102097.19;;;0.89;100.00
18900;BME280;9582;52.018;6.306;2023-04-27T05:22:16;102102.53;;;1.02;100.00
18900;BME280;9582;52.018;6.306;2023-04-27T05:24:42;102114.88;;;1.25;100.00
18900;BME280;9582;52.018;6.306;2023-04-27T05:27:11;102118.13;;;1.74;100.00
18900;BME280;9582;52.018;6.306;2023-04-27T05:29:37;102123.19;;;2.45;100.00
18900;BME280;9582;52.018;6.306;2023-04-27T05:32:04;102110.81;;;3.19;100.00
18900;BME280;9582;52.018;6.306;2023-04-27T05:34:31;102109.44;;;3.95;100.00
18900;BME280;9582;52.018;6.306;2023-04-27T05:36:57;102077.59;;;4.54;100.00
18900;BME280;9582;52.018;6.306;2023-04-27T05:39:25;102059.41;;;4.98;100.00
18900;BME280;9582;52.018;6.306;2023-04-27T05:41:52;102017.00;;;5.23;100.00
18900;BME280;9582;52.018;6.306;2023-04-27T05:44:18;101992.72;;;5.41;100.00
18900;BME280;9582;52.018;6.306;2023-04-27T05:46:45;101962.25;;;5.74;100.00
18900;BME280;9582;52.018;6.306;2023-04-27T05:49:11;101924.97;;;5.92;100.00
18900;BME280;9582;52.018;6.306;2023-04-27T05:51:38;101887.63;;;6.07;100.00
18900;BME280;9582;52.018;6.306;2023-04-27T05:54:06;101848.56;;;6.17;100.00
18900;BME280;9582;52.018;6.306;2023-04-27T05:56:34;101792.28;;;6.16;100.00
18900;BME280;9582;52.018;6.306;2023-04-27T05:59:02;101741.19;;;6.20;100.00
18900;BME280;9582;52.018;6.306;2023-04-27T06:01:28;101709.72;;;6.43;100.00
18900;BME280;9582;52.018;6.306;2023-04-27T06:03:55;101688.00;;;6.47;100.00
18900;BME280;9582;52.018;6.306;2023-04-27T06:06:25;101667.63;;;6.77;100.00
18900;BME280;9582;52.018;6.306;2023-04-27T06:08:52;101621.47;;;6.91;100.00
18900;BME280;9582;52.018;6.306;2023-04-27T06:11:18;101563.63;;;7.26;100.00
18900;BME280;9582;52.018;6.306;2023-04-27T06:13:46;101547.56;;;7.49;100.00
18900;BME280;9582;52.018;6.306;2023-04-27T06:16:13;101517.06;;;7.94;100.00
18900;BME280;9582;52.018;6.306;2023-04-27T06:18:40;101501.66;;;8.22;100.00
18900;BME280;9582;52.018;6.306;2023-04-27T06:21:06;101477.72;;;8.43;100.00
18900;BME280;9582;52.018;6.306;2023-04-27T06:23:33;101469.66;;;8.52;100.00
18900;BME280;9582;52.018;6.306;2023-04-27T06:25:59;101458.75;;;8.70;100.00
18900;BME280;9582;52.018;6.306;2023-04-27T06:28:26;101384.59;;;8.80;100.00
18900;BME280;9582;52.018;6.306;2023-04-27T06:30:53;101344.94;;;8.98;100.00
18900;BME280;9582;52.018;6.306;2023-04-27T06:33:20;101348.97;;;9.08;100.00
18900;BME280;9582;52.018;6.306;2023-04-27T06:35:46;101347.97;;;9.12;100.00
18900;BME280;9582;52.018;6.306;2023-04-27T06:38:13;101342.53;;;9.20;100.00
18900;BME280;9582;52.018;6.306;2023-04-27T06:40:39;101336.50;;;9.18;100.00
18900;BME280;9582;52.018;6.306;2023-04-27T06:43:06;101334.72;;;9.20;100.00
18900;BME280;9582;52.018;6.306;2023-04-27T06:45:32;101344.50;;;9.12;100.00
18900;BME280;9582;52.018;6.306;2023-04-27T06:48:00;101341.63;;;9.21;100.00
18900;BME280;9582;52.018;6.306;2023-04-27T06:50:27;101345.34;;;9.42;100.00
18900;BME280;9582;52.018;6.306;2023-04-27T06:52:53;101353.97;;;9.44;100.00
18900;BME280;9582;52.018;6.306;2023-04-27T06:55:20;101365.84;;;9.54;100.00
18900;BME280;9582;52.018;6.306;2023-04-27T06:57:46;101368.03;;;9.66;100.00
18900;BME280;9582;52.018;6.306;2023-04-27T07:00:13;101367.84;;;9.72;100.00
18900;BME280;9582;52.018;6.306;2023-04-27T07:02:40;101384.22;;;9.77;100.00
18900;BME280;9582;52.018;6.306;2023-04-27T07:05:08;101386.69;;;9.81;100.00
18900;BME280;9582;52.018;6.306;2023-04-27T07:07:35;101393.97;;;9.98;100.00
18900;BME280;9582;52.018;6.306;2023-04-27T07:10:01;101400.28;;;9.91;100.00
18900;BME280;9582;52.018;6.306;2023-04-27T07:12:28;101415.63;;;10.02;100.00
18900;BME280;9582;52.018;6.306;2023-04-27T07:14:54;101403.72;;;10.19;100.00
18900;BME280;9582;52.018;6.306;2023-04-27T07:17:21;101423.22;;;10.09;100.00
18900;BME280;9582;52.018;6.306;2023-04-27T07:19:47;101452.09;;;9.78;100.00
18900;BME280;9582;52.018;6.306;2023-04-27T07:22:15;101462.91;;;9.66;100.00
18900;BME280;9582;52.018;6.306;2023-04-27T07:24:42;101464.34;;;9.47;100.00
18900;BME280;9582;52.018;6.306;2023-04-27T07:27:08;101472.97;;;9.51;100.00
18900;BME280;9582;52.018;6.306;2023-04-27T07:29:35;101490.38;;;9.50;100.00
18900;BME280;9582;52.018;6.306;2023-04-27T07:32:04;101493.78;;;9.52;100.00
18900;BME280;9582;52.018;6.306;2023-04-27T07:34:30;101492.25;;;9.74;100.00
18900;BME280;9582;52.018;6.306;2023-04-27T07:36:57;101509.38;;;9.83;100.00
18900;BME280;9582;52.018;6.306;2023-04-27T07:39:25;101518.00;;;9.86;100.00
18900;BME280;9582;52.018;6.306;2023-04-27T07:41:51;101531.63;;;9.96;100.00
18900;BME280;9582;52.018;6.306;2023-04-27T07:44:18;101535.41;;;10.15;100.00
18900;BME280;9582;52.018;6.306;2023-04-27T07:46:45;101535.06;;;10.26;100.00
18900;BME280;9582;52.018;6.306;2023-04-27T07:49:13;101542.56;;;10.36;100.00
18900;BME280;9582;52.018;6.306;2023-04-27T07:51:39;101547.56;;;10.44;100.00
18900;BME280;9582;52.018;6.306;2023-04-27T07:54:07;101550.41;;;10.63;100.00
18900;BME280;9582;52.018;6.306;2023-04-27T07:56:35;101565.81;;;10.72;100.00
18900;BME280;9582;52.018;6.306;2023-04-27T07:59:02;101574.25;;;10.80;100.00
18900;BME280;9582;52.018;6.306;2023-04-27T08:01:28;101591.13;;;10.96;100.00
18900;BME280;9582;52.018;6.306;2023-04-27T08:03:54;101593.34;;;10.82;100.00
18900;BME280;9582;52.018;6.306;2023-04-27T08:06:21;101613.31;;;10.84;100.00
18900;BME280;9582;52.018;6.306;2023-04-27T08:08:47;101601.00;;;11.13;100.00
18900;BME280;9582;52.018;6.306;2023-04-27T08:11:14;101591.84;;;11.26;100.00
18900;BME280;9582;52.018;6.306;2023-04-27T08:13:42;101630.41;;;11.21;100.00
18900;BME280;9582;52.018;6.306;2023-04-27T08:16:08;101633.66;;;11.27;100.00
18900;BME280;9582;52.018;6.306;2023-04-27T08:18:35;101643.28;;;11.27;100.00
18900;BME280;9582;52.018;6.306;2023-04-27T08:21:01;101629.09;;;11.34;100.00
18900;BME280;9582;52.018;6.306;2023-04-27T08:23:29;101638.47;;;11.39;100.00
18900;BME280;9582;52.018;6.306;2023-04-27T08:25:57;101641.91;;;11.41;100.00
18900;BME280;9582;52.018;6.306;2023-04-27T08:28:23;101640.44;;;11.57;100.00
18900;BME280;9582;52.018;6.306;2023-04-27T08:30:51;101658.50;;;10.89;100.00
18900;BME280;9582;52.018;6.306;2023-04-27T08:33:18;101657.69;;;10.87;100.00
18900;BME280;9582;52.018;6.306;2023-04-27T08:35:44;101655.78;;;11.19;100.00
18900;BME280;9582;52.018;6.306;2023-04-27T08:38:11;101657.41;;;11.47;100.00
18900;BME280;9582;52.018;6.306;2023-04-27T08:40:41;101651.03;;;11.54;100.00
18900;BME280;9582;52.018;6.306;2023-04-27T08:43:07;101647.00;;;11.71;100.00
18900;BME280;9582;52.018;6.306;2023-04-27T08:45:34;101662.31;;;11.81;100.00
18900;BME280;9582;52.018;6.306;2023-04-27T08:48:02;101667.13;;;11.93;100.00
18900;BME280;9582;52.018;6.306;2023-04-27T08:50:28;101671.78;;;12.08;100.00
18900;BME280;9582;52.018;6.306;2023-04-27T08:52:55;101675.22;;;12.10;100.00
18900;BME280;9582;52.018;6.306;2023-04-27T08:55:22;101698.03;;;11.84;100.00
18900;BME280;9582;52.018;6.306;2023-04-27T08:57:55;101701.53;;;11.84;100.00
18900;BME280;9582;52.018;6.306;2023-04-27T09:00:23;101704.53;;;11.97;100.00
18900;BME280;9582;52.018;6.306;2023-04-27T09:02:50;101713.34;;;11.96;100.00
18900;BME280;9582;52.018;6.306;2023-04-27T09:05:19;101711.34;;;11.78;100.00
18900;BME280;9582;52.018;6.306;2023-04-27T09:07:57;101699.25;;;11.98;100.00
18900;BME280;9582;52.018;6.306;2023-04-27T09:10:24;101684.31;;;12.24;100.00
18900;BME280;9582;52.018;6.306;2023-04-27T09:12:57;101695.38;;;12.32;100.00
18900;BME280;9582;52.018;6.306;2023-04-27T09:15:24;101695.81;;;12.43;100.00
18900;BME280;9582;52.018;6.306;2023-04-27T09:17:54;101713.81;;;12.30;100.00
18900;BME280;9582;52.018;6.306;2023-04-27T09:20:23;101704.66;;;12.40;100.00
18900;BME280;9582;52.018;6.306;2023-04-27T09:22:52;101707.94;;;12.45;100.00
18900;BME280;9582;52.018;6.306;2023-04-27T09:25:26;101713.09;;;12.48;100.00
18900;BME280;9582;52.018;6.306;2023-04-27T09:27:53;101709.31;;;12.55;100.00
18900;BME280;9582;52.018;6.306;2023-04-27T09:30:20;101706.19;;;12.67;100.00
18900;BME280;9582;52.018;6.306;2023-04-27T09:32:50;101694.38;;;12.79;100.00
18900;BME280;9582;52.018;6.306;2023-04-27T09:35:21;101697.91;;;13.00;100.00
18900;BME280;9582;52.018;6.306;2023-04-27T09:37:49;101715.09;;;12.87;100.00
18900;BME280;9582;52.018;6.306;2023-04-27T09:40:18;101719.56;;;13.05;100.00
18900;BME280;9582;52.018;6.306;2023-04-27T09:42:45;101713.78;;;13.18;100.00
18900;BME280;9582;52.018;6.306;2023-04-27T09:45:12;101718.63;;;13.29;100.00
18900;BME280;9582;52.018;6.306;2023-04-27T09:47:39;101716.78;;;13.31;100.00
18900;BME280;9582;52.018;6.306;2023-04-27T09:50:07;101712.47;;;12.87;100.00
18900;BME280;9582;52.018;6.306;2023-04-27T09:52:34;101713.13;;;12.92;100.00
18900;BME280;9582;52.018;6.306;2023-04-27T09:55:03;101708.41;;;13.00;100.00
18900;BME280;9582;52.018;6.306;2023-04-27T09:57:36;101708.22;;;13.04;100.00
18900;BME280;9582;52.018;6.306;2023-04-27T10:00:19;101701.09;;;13.08;100.00
18900;BME280;9582;52.018;6.306;2023-04-27T10:02:57;101692.84;;;13.17;100.00
18900;BME280;9582;52.018;6.306;2023-04-27T10:05:40;101714.84;;;13.14;100.00
18900;BME280;9582;52.018;6.306;2023-04-27T10:08:08;101708.41;;;13.21;100.00
18900;BME280;9582;52.018;6.306;2023-04-27T10:10:46;101725.94;;;12.99;100.00
18900;BME280;9582;52.018;6.306;2023-04-27T10:13:20;101764.69;;;12.48;100.00
18900;BME280;9582;52.018;6.306;2023-04-27T10:15:47;101758.00;;;12.62;100.00
18900;BME280;9582;52.018;6.306;2023-04-27T10:18:24;101759.75;;;12.85;100.00
18900;BME280;9582;52.018;6.306;2023-04-27T10:20:50;101775.66;;;13.04;100.00
18900;BME280;9582;52.018;6.306;2023-04-27T10:23:21;101785.56;;;13.19;100.00
18900;BME280;9582;52.018;6.306;2023-04-27T10:25:49;101784.94;;;13.34;100.00
18900;BME280;9582;52.018;6.306;2023-04-27T10:28:16;101777.34;;;13.05;100.00
18900;BME280;9582;52.018;6.306;2023-04-27T10:30:44;101770.16;;;13.10;100.00
18900;BME280;9582;52.018;6.306;2023-04-27T10:33:15;101776.13;;;12.92;100.00
18900;BME280;9582;52.018;6.306;2023-04-27T10:35:43;101780.91;;;13.04;100.00
18900;BME280;9582;52.018;6.306;2023-04-27T10:38:14;101782.94;;;13.19;100.00
18900;BME280;9582;52.018;6.306;2023-04-27T10:40:43;101796.59;;;13.49;100.00
18900;BME280;9582;52.018;6.306;2023-04-27T10:43:12;101797.22;;;13.75;100.00
18900;BME280;9582;52.018;6.306;2023-04-27T10:45:40;101793.94;;;13.70;100.00
18900;BME280;9582;52.018;6.306;2023-04-27T10:48:08;101804.75;;;13.83;100.00
18900;BME280;9582;52.018;6.306;2023-04-27T10:50:38;101816.00;;;13.86;100.00
18900;BME280;9582;52.018;6.306;2023-04-27T10:53:06;101826.13;;;13.75;100.00
18900;BME280;9582;52.018;6.306;2023-04-27T10:55:33;101820.81;;;13.77;100.00
18900;BME280;9582;52.018;6.306;2023-04-27T10:58:00;101823.44;;;13.77;100.00
18900;BME280;9582;52.018;6.306;2023-04-27T11:00:31;101825.41;;;13.72;100.00
18900;BME280;9582;52.018;6.306;2023-04-27T11:03:10;101830.63;;;13.30;100.00
18900;BME280;9582;52.018;6.306;2023-04-27T11:05:36;101828.63;;;13.15;100.00
18900;BME280;9582;52.018;6.306;2023-04-27T11:08:04;101824.13;;;13.40;100.00
18900;BME280;9582;52.018;6.306;2023-04-27T11:10:31;101827.19;;;13.50;100.00
18900;BME280;9582;52.018;6.306;2023-04-27T11:12:58;101829.66;;;13.11;100.00
18900;BME280;9582;52.018;6.306;2023-04-27T11:15:24;101831.56;;;13.29;100.00
18900;BME280;9582;52.018;6.306;2023-04-27T11:18:03;101834.97;;;13.53;100.00
18900;BME280;9582;52.018;6.306;2023-04-27T11:20:29;101823.97;;;13.65;100.00
18900;BME280;9582;52.018;6.306;2023-04-27T11:22:56;101826.78;;;13.80;100.00
18900;BME280;9582;52.018;6.306;2023-04-27T11:25:26;101840.75;;;13.82;100.00
18900;BME280;9582;52.018;6.306;2023-04-27T11:27:53;101842.28;;;14.08;100.00
18900;BME280;9582;52.018;6.306;2023-04-27T11:30:20;101844.81;;;14.10;100.00
18900;BME280;9582;52.018;6.306;2023-04-27T11:32:48;101841.28;;;14.11;100.00
18900;BME280;9582;52.018;6.306;2023-04-27T11:35:16;101844.31;;;13.60;100.00
18900;BME280;9582;52.018;6.306;2023-04-27T11:37:43;101833.03;;;13.14;100.00
18900;BME280;9582;52.018;6.306;2023-04-27T11:40:12;101836.72;;;12.86;100.00
18900;BME280;9582;52.018;6.306;2023-04-27T11:42:39;101831.03;;;12.74;100.00
18900;BME280;9582;52.018;6.306;2023-04-27T11:45:10;101813.53;;;13.20;100.00
18900;BME280;9582;52.018;6.306;2023-04-27T11:47:37;101808.72;;;13.73;100.00
18900;BME280;9582;52.018;6.306;2023-04-27T11:50:06;101811.88;;;14.01;100.00
18900;BME280;9582;52.018;6.306;2023-04-27T11:52:35;101825.25;;;13.97;100.00
18900;BME280;9582;52.018;6.306;2023-04-27T11:55:02;101835.34;;;14.06;100.00
18900;BME280;9582;52.018;6.306;2023-04-27T11:57:31;101818.00;;;14.22;100.00
18900;BME280;9582;52.018;6.306;2023-04-27T11:59:59;101840.72;;;14.23;100.00
18900;BME280;9582;52.018;6.306;2023-04-27T12:02:27;101824.31;;;14.38;100.00
18900;BME280;9582;52.018;6.306;2023-04-27T12:04:54;101829.44;;;14.41;100.00
18900;BME280;9582;52.018;6.306;2023-04-27T12:07:21;101832.56;;;14.49;100.00
18900;BME280;9582;52.018;6.306;2023-04-27T12:09:48;101836.94;;;14.50;100.00
18900;BME280;9582;52.018;6.306;2023-04-27T12:12:15;101837.31;;;14.21;100.00
18900;BME280;9582;52.018;6.306;2023-04-27T12:14:43;101829.63;;;14.16;100.00
18900;BME280;9582;52.018;6.306;2023-04-27T12:17:09;101831.41;;;14.16;100.00
18900;BME280;9582;52.018;6.306;2023-04-27T12:19:36;101836.13;;;13.87;100.00
18900;BME280;9582;52.018;6.306;2023-04-27T12:22:03;101834.13;;;13.30;100.00
18900;BME280;9582;52.018;6.306;2023-04-27T12:24:29;101828.16;;;13.04;100.00
18900;BME280;9582;52.018;6.306;2023-04-27T12:26:57;101835.44;;;12.74;100.00
18900;BME280;9582;52.018;6.306;2023-04-27T12:29:25;101826.34;;;12.83;100.00
18900;BME280;9582;52.018;6.306;2023-04-27T12:31:52;101823.72;;;12.83;100.00
18900;BME280;9582;52.018;6.306;2023-04-27T12:34:19;101813.34;;;13.24;100.00
18900;BME280;9582;52.018;6.306;2023-04-27T12:36:45;101806.91;;;13.53;100.00
18900;BME280;9582;52.018;6.306;2023-04-27T12:39:14;101808.06;;;13.26;100.00
18900;BME280;9582;52.018;6.306;2023-04-27T12:41:41;101805.56;;;13.65;100.00
18900;BME280;9582;52.018;6.306;2023-04-27T12:44:09;101814.25;;;14.07;100.00
18900;BME280;9582;52.018;6.306;2023-04-27T12:46:36;101805.34;;;14.50;100.00
18900;BME280;9582;52.018;6.306;2023-04-27T12:49:03;101804.72;;;14.64;100.00
18900;BME280;9582;52.018;6.306;2023-04-27T12:51:30;101814.78;;;14.54;100.00
18900;BME280;9582;52.018;6.306;2023-04-27T12:53:57;101821.28;;;14.47;100.00
18900;BME280;9582;52.018;6.306;2023-04-27T12:56:24;101803.84;;;14.24;100.00